Coos Bay, OR

9:30 AM PST on November 23, 2014 (GMT -0800)
Sexton Summit | Change Station
CLOSE
Current Station
Airport
Location: Sexton Summit,
Elevation: 3839 ft
Nearby Weather Stations

Elev 3839 ft 42.60 °N, 123.36 °W | Updated 23 minutes ago

Mostly Cloudy
Mostly Cloudy
35 °F
Feels Like 29 °F
N
8
Wind Variable Wind from SE

Today
High -- | Low -- °F
--% Chance of Precip.
Yesterday
High -- | Low -- °F
Precip. -- in
7:20 AM 4:46 PM
New Moon, 2% visible
Pressure 30.35 in
Visibility 0.2 miles
Clouds
Windchill 29 °F
Dew Point 35 °F
Humidity 100%
Rainfall 0.00 in
Snow Depth Not available.
UV Not available.
Pollen .10 out of 12
Air Quality Not available.
Flu Activity Not available.
SPECI KSXT 231707Z AUTO 14007KT M1/4SM FG VV001 02/02 A3035 RMK AO2 T00170017 $

More Conditions Fewer Conditions

Pressure 30.35 in
Visibility 0.2 miles
Clouds
Windchill 29 °F
Dew Point 35 °F
Humidity 100%
Rainfall 0.00 in
Snow Depth Not available.
UV Not available.
Pollen .10 out of 12
Air Quality Not available.
Flu Activity Not available.
SPECI KSXT 231707Z AUTO 14007KT M1/4SM FG VV001 02/02 A3035 RMK AO2 T00170017 $

More Conditions Fewer Conditions

10-Day Weather Forecast

Almanac

Astronomy

Nov. 23, 2014 Rise Set
Actual Time
Civil Twilight
Nautical Twilight
Astronomical Twilight
Moon
Length of Visible Light
Length of Day
Tomorrow will be .
, % of the Moon is Illuminated

Today's Extremes

State Highs State Lows

Community

WunderPhotos

Upload Photos

1,773,112 photos uploaded!

WunderBlogs® & News

Nearby

Air Quality

  Air Quality AQ Index Pollutant
Not available.

Snow Depth

Station Depth Elevation

Earthquake Activity

City Distance Mag. Time & Date
Minimum magnitude displayed is 2.5.

Coastal Water Temperatures

Place Temperature

Nearby Weather Stations